Melbourne, Washington
Current Conditions -  °F | °C
As of 5:53 PM on Saturday 22 Nov 2014 (Local Time) from KSHN Reporting Station
Clear Clear  
Wind Chill: 42°   Ceiling: Unl
Heat Index: 44°   Visibility: 10mi
Dew Point: 41°   Wind: 5mph
Humidity: 89%   Direction: 220°SW
Pressure: 30.01"   Gusts: NA
Location:  47.555°N, 123.746°W
Report Text: KSHN 230153Z AUTO 22004KT 10SM CLR 07/05 A3001 RMK AO2 SLP165 T00670050
Loading
Personal Weather Stations






























Interactive Weather Map New forecast layout! Learn more

10-Day Weather Forecast

Advertisements
Track Severe Weather on mobile